Pickens, AR (71662)

11:17 PM CDT on April 21, 2015 (GMT -0500)
Port of Rosedale LDC | | Change Station
CLOSE
Current Station
Personal Weather Station
Location: Rosedale, MS
Elevation: 161 ft
Nearby Weather Stations
Active Advisory: Flood Advisory Active Notice: Public Information Statement

Elev 161 ft 33.81 °N, 91.02 °W | Updated 2 minutes ago

Clear
Clear
59.6 °F
Feels Like 59.6 °F
N
1.0
Wind Variable Wind from North
Gusts 8.0 mph

Today
High -- | Low -- °F
--% Chance of Precip.
Yesterday
High -- | Low -- °F
Precip. -- in
6:27 AM 7:41 PM
Waxing Crescent, 15% visible
Pressure 29.96 in
Visibility 10.0 miles
Clouds Clear
Dew Point 52 °F
Humidity 77%
Rainfall 0.00 in
Snow Depth Not available.
UV 0 out of 12
Pollen 9.80 out of 12
Air Quality Not available.
Flu Activity Sporadic
METAR KLLQ 220353Z AUTO 24006KT 10SM CLR 14/11 A2996 RMK AO2 SLP144 T01440106

More Conditions Fewer Conditions

Pressure 29.96 in
Visibility 10.0 miles
Clouds Clear
Dew Point 52 °F
Humidity 77%
Rainfall 0.00 in
Snow Depth Not available.
UV 0 out of 12
Pollen 9.80 out of 12
Air Quality Not available.
Flu Activity Sporadic
METAR KLLQ 220353Z AUTO 24006KT 10SM CLR 14/11 A2996 RMK AO2 SLP144 T01440106

More Conditions Fewer Conditions

10-Day Weather Forecast

Almanac

Astronomy

Apr. 21, 2015 Rise Set
Actual Time
Civil Twilight
Nautical Twilight
Astronomical Twilight
Moon
Length of Visible Light
Length of Day
Tomorrow will be .
, % of the Moon is Illuminated

Today's Extremes

State Highs State Lows

Community

WunderPhotos

Upload Photos

1,815,666 photos uploaded!

WunderBlogs® & News

Nearby

Air Quality

  Air Quality AQ Index Pollutant
Not available.

Snow Depth

Station Depth Elevation

Earthquake Activity

City Distance Mag. Time & Date
Minimum magnitude displayed is 2.5.

Coastal Water Temperatures

Place Temperature

Stations

Nearby Weather Stations

Station Location Temp. Windchill Dew Point Humidity Wind Precip. Elev Updated Type
                   
Flood Advisory
Statement as of 10:10 AM CDT on April 21, 2015

The Flood Advisory continues for
the Mississippi River near Arkansas City.
* Until this evening.
* At 9:00 am Tuesday the stage was 32.6 feet.
* Flood stage is 37.0 feet.
* Forecast... the river will rise to near 33.5 feet by Thursday April
30.



              Flood observed forecast 7 am crest
location stg stg day time Wed Thu Fri crest time date

Lower Mississippi River
Arkansas City 37 32.6 Tue 09 am 32.8 33.0 33.1 33.5 07 am 04/30




Lat... Lon 3340 9128 3357 9128 3413 9108 3412 9066
      3358 9106 3340 9105